Time;durP1;ratioP1;P1;durP2;ratioP2;P2;SDS_P1;SDS_P2;PMS_P1;PMS_P2;Temp;Humidity;BMP_temperature;BMP_pressure;BME280_temperature;BME280_humidity;BME280_pressure;Samples;Min_cycle;Max_cycle;Signal;HPM_P1;HPM_P2
2023/10/31 00:00:20;;;;;;;6.13;3.30;;;13.00;99.90;;;;;;4954426;28;20081;-76
2023/10/31 00:03:06;;;;;;;8.15;2.85;;;13.00;99.90;;;;;;4980340;28;20035;-75
2023/10/31 00:05:52;;;;;;;8.40;3.25;;;13.00;99.90;;;;;;4949725;28;20047;-75
2023/10/31 00:08:38;;;;;;;8.40;2.95;;;12.90;99.90;;;;;;4960017;28;20498;-75
2023/10/31 00:11:24;;;;;;;6.70;3.20;;;12.90;99.90;;;;;;4964985;28;20039;-75
2023/10/31 00:14:10;;;;;;;8.27;3.13;;;12.90;99.90;;;;;;4970515;28;20151;-75
2023/10/31 00:16:56;;;;;;;9.52;3.33;;;12.90;99.90;;;;;;4967544;28;20058;-75
2023/10/31 00:19:41;;;;;;;5.35;2.90;;;12.80;99.90;;;;;;4979385;28;20046;-75
2023/10/31 00:22:27;;;;;;;8.75;2.80;;;12.80;99.90;;;;;;4968661;28;20047;-75
2023/10/31 00:25:13;;;;;;;6.43;3.30;;;12.80;99.90;;;;;;4950652;28;20047;-75
2023/10/31 00:27:59;;;;;;;7.43;3.53;;;12.80;99.90;;;;;;4952837;29;20051;-74
2023/10/31 00:30:47;;;;;;;6.32;3.63;;;12.80;99.90;;;;;;4969756;28;20047;-78
2023/10/31 00:33:37;;;;;;;7.30;3.20;;;12.80;99.90;;;;;;4980037;28;20097;-78
2023/10/31 00:36:23;;;;;;;9.40;3.72;;;12.80;99.90;;;;;;4969685;28;20497;-78
2023/10/31 00:39:09;;;;;;;6.55;3.90;;;12.80;99.90;;;;;;4977657;28;20073;-78
2023/10/31 00:41:55;;;;;;;7.93;3.85;;;12.70;99.90;;;;;;4980170;28;20189;-78
2023/10/31 00:44:41;;;;;;;10.20;4.32;;;12.70;99.90;;;;;;4966106;28;20180;-78
2023/10/31 00:47:27;;;;;;;9.10;4.70;;;12.70;99.90;;;;;;4978201;28;20089;-78
2023/10/31 00:50:13;;;;;;;10.70;5.47;;;12.70;99.90;;;;;;4978239;28;20118;-78
2023/10/31 00:52:59;;;;;;;10.38;5.47;;;12.70;99.90;;;;;;4976157;28;20035;-78
2023/10/31 00:55:45;;;;;;;8.85;5.50;;;12.60;99.90;;;;;;4954040;28;20039;-78
2023/10/31 00:58:31;;;;;;;11.57;7.03;;;12.60;99.90;;;;;;4958683;29;20035;-78
2023/10/31 01:01:17;;;;;;;15.38;5.93;;;12.60;99.90;;;;;;4949912;28;20098;-78
2023/10/31 01:04:03;;;;;;;14.13;7.30;;;12.60;99.90;;;;;;4976637;28;20046;-78
2023/10/31 01:06:49;;;;;;;14.23;6.72;;;12.60;99.90;;;;;;4978725;28;20046;-78
2023/10/31 01:09:35;;;;;;;13.90;7.07;;;12.60;99.90;;;;;;4951476;28;20043;-77
2023/10/31 01:12:21;;;;;;;13.52;6.97;;;12.60;99.90;;;;;;4945021;29;20043;-77
2023/10/31 01:15:09;;;;;;;13.00;7.53;;;12.60;99.90;;;;;;4967562;28;20070;-77
2023/10/31 01:17:55;;;;;;;10.25;6.43;;;12.50;99.90;;;;;;4959750;28;20070;-77
2023/10/31 01:20:41;;;;;;;18.25;8.45;;;12.60;99.90;;;;;;4973643;28;20353;-76
2023/10/31 01:23:27;;;;;;;12.23;7.50;;;12.50;99.90;;;;;;4962242;28;20123;-77
2023/10/31 01:26:13;;;;;;;15.55;7.97;;;12.50;99.90;;;;;;4963524;28;20381;-77
2023/10/31 01:28:59;;;;;;;10.80;6.88;;;12.50;99.90;;;;;;4946489;28;20042;-77
2023/10/31 01:31:44;;;;;;;15.20;8.95;;;12.50;99.90;;;;;;4962328;28;20043;-77
2023/10/31 01:34:30;;;;;;;13.55;8.95;;;12.50;99.90;;;;;;4976476;28;20051;-77
2023/10/31 01:37:19;;;;;;;13.43;8.02;;;12.50;99.90;;;;;;4976501;28;20034;-77
2023/10/31 01:40:06;;;;;;;;;;;12.50;99.90;;;;;;4964127;28;20405;-76
2023/10/31 01:42:52;;;;;;;13.77;7.23;;;12.40;99.90;;;;;;4974803;28;19914;-77
2023/10/31 01:45:38;;;;;;;13.68;8.32;;;12.40;99.90;;;;;;4958285;28;20284;-76
2023/10/31 01:48:24;;;;;;;14.70;8.57;;;12.40;99.90;;;;;;4975661;28;20597;-77
2023/10/31 01:51:10;;;;;;;11.10;7.13;;;12.40;99.90;;;;;;4975356;28;20050;-77
2023/10/31 01:53:56;;;;;;;20.60;8.60;;;12.50;99.90;;;;;;4973847;28;20065;-77
2023/10/31 01:56:42;;;;;;;14.55;9.00;;;12.50;99.90;;;;;;4945418;28;20376;-77
2023/10/31 01:59:28;;;;;;;11.73;7.80;;;12.40;99.90;;;;;;4942092;29;20039;-77
2023/10/31 02:02:14;;;;;;;12.07;7.70;;;12.50;99.90;;;;;;4945935;28;20098;-77
2023/10/31 02:05:00;;;;;;;9.93;6.38;;;12.50;99.90;;;;;;4962799;28;20043;-77
2023/10/31 02:07:46;;;;;;;10.85;6.65;;;12.50;99.90;;;;;;4961928;28;20574;-77
2023/10/31 02:10:32;;;;;;;9.07;6.40;;;12.40;99.90;;;;;;4962335;28;20074;-77
2023/10/31 02:13:18;;;;;;;12.82;6.78;;;12.50;99.90;;;;;;4962618;28;20047;-77
2023/10/31 02:16:05;;;;;;;10.60;6.25;;;12.50;99.90;;;;;;4961908;28;20038;-76
2023/10/31 02:18:51;;;;;;;9.23;5.88;;;12.50;99.90;;;;;;4956137;28;20050;-76
2023/10/31 02:21:40;;;;;;;8.30;5.97;;;12.50;99.90;;;;;;4956510;29;20114;-76
2023/10/31 02:24:26;;;;;;;10.07;5.65;;;12.40;99.90;;;;;;4960334;28;20051;-77
2023/10/31 02:27:12;;;;;;;10.68;5.60;;;12.40;99.90;;;;;;4959800;28;20367;-77
2023/10/31 02:29:58;;;;;;;9.07;6.03;;;12.40;99.90;;;;;;4973562;28;20047;-77
2023/10/31 02:32:43;;;;;;;9.65;6.50;;;12.40;99.90;;;;;;4976435;28;20670;-77
2023/10/31 02:35:29;;;;;;;11.70;7.28;;;12.40;99.90;;;;;;4969930;28;20074;-77
2023/10/31 02:38:15;;;;;;;10.75;6.80;;;12.40;99.90;;;;;;4943658;29;20039;-76
2023/10/31 02:41:03;;;;;;;10.05;6.82;;;12.40;99.90;;;;;;4975060;28;20035;-77
2023/10/31 02:43:49;;;;;;;9.75;6.60;;;12.40;99.90;;;;;;4958805;28;20066;-77
2023/10/31 02:46:39;;;;;;;8.95;6.75;;;12.40;99.90;;;;;;4967716;28;20039;-77
2023/10/31 02:49:24;;;;;;;13.10;6.28;;;12.40;99.90;;;;;;4972703;28;20046;-76
2023/10/31 02:52:10;;;;;;;10.48;6.70;;;12.40;99.90;;;;;;4964947;28;20038;-77
2023/10/31 02:54:56;;;;;;;9.75;5.55;;;12.40;99.90;;;;;;4962789;28;20054;-77
2023/10/31 02:57:42;;;;;;;9.43;6.00;;;12.40;99.90;;;;;;4961599;28;20034;-77
2023/10/31 03:00:28;;;;;;;10.65;5.93;;;12.40;99.90;;;;;;4973705;28;20046;-77
2023/10/31 03:03:14;;;;;;;11.02;6.22;;;12.40;99.90;;;;;;4959963;28;20074;-77
2023/10/31 03:06:00;;;;;;;10.07;6.20;;;12.40;99.90;;;;;;4964840;28;20070;-77
2023/10/31 03:08:46;;;;;;;10.57;5.85;;;12.40;99.90;;;;;;4959970;28;20055;-76
2023/10/31 03:11:32;;;;;;;8.60;5.50;;;12.40;99.90;;;;;;4956147;28;20051;-77
2023/10/31 03:14:18;;;;;;;8.23;5.38;;;12.40;99.90;;;;;;4972391;28;20045;-76
2023/10/31 03:17:04;;;;;;;7.13;5.38;;;12.50;99.90;;;;;;4958785;28;20088;-77
2023/10/31 03:19:50;;;;;;;8.57;5.30;;;12.50;99.90;;;;;;4964834;28;20066;-77
2023/10/31 03:22:36;;;;;;;7.78;5.28;;;12.50;99.90;;;;;;4956630;29;20047;-77
2023/10/31 03:25:22;;;;;;;10.65;5.60;;;12.50;99.90;;;;;;4941519;28;20087;-77
2023/10/31 03:28:19;;;;;;;7.13;5.13;;;12.50;99.90;;;;;;4961928;28;20078;-77
2023/10/31 03:31:05;;;;;;;8.02;5.38;;;12.50;99.90;;;;;;4961351;28;20126;-76
2023/10/31 03:33:51;;;;;;;8.63;4.55;;;12.50;99.90;;;;;;4964567;28;20043;-77
2023/10/31 03:36:37;;;;;;;7.20;4.80;;;12.50;99.90;;;;;;4971391;28;20074;-77
2023/10/31 03:39:23;;;;;;;8.75;4.70;;;12.50;99.90;;;;;;4960162;28;20809;-77
2023/10/31 03:42:09;;;;;;;8.15;4.82;;;12.50;99.90;;;;;;4948390;28;20109;-77
2023/10/31 03:44:55;;;;;;;7.03;4.70;;;12.50;99.90;;;;;;4961030;28;20081;-77
2023/10/31 03:47:41;;;;;;;8.98;4.82;;;12.50;99.90;;;;;;4972969;28;20118;-77
2023/10/31 03:50:27;;;;;;;7.72;4.75;;;12.50;99.90;;;;;;4960706;28;20440;-76
2023/10/31 03:53:13;;;;;;;7.25;4.90;;;12.50;99.90;;;;;;4948241;28;20118;-76
2023/10/31 03:56:00;;;;;;;12.20;4.63;;;12.50;99.90;;;;;;4968405;28;20121;-76
2023/10/31 03:58:46;;;;;;;8.45;4.90;;;12.50;99.90;;;;;;4934603;28;20042;-77
2023/10/31 04:01:32;;;;;;;9.07;4.90;;;12.50;99.90;;;;;;4973223;28;20039;-77
2023/10/31 04:04:17;;;;;;;7.38;4.75;;;12.50;99.90;;;;;;4947543;28;20802;-77
2023/10/31 04:07:04;;;;;;;8.55;4.72;;;12.50;99.90;;;;;;4966461;28;20043;-77
2023/10/31 04:09:50;;;;;;;6.72;5.07;;;12.50;99.90;;;;;;4958335;28;20054;-77
2023/10/31 04:12:35;;;;;;;10.13;6.85;;;12.50;99.90;;;;;;4972697;28;20039;-76
2023/10/31 04:15:21;;;;;;;7.80;5.18;;;12.40;99.90;;;;;;4960544;28;20514;-76
2023/10/31 04:18:07;;;;;;;9.85;6.70;;;12.50;99.90;;;;;;4959525;28;20121;-77
2023/10/31 04:20:54;;;;;;;7.90;5.10;;;12.40;99.90;;;;;;4954892;28;20034;-76
2023/10/31 04:23:40;;;;;;;9.43;5.00;;;12.50;99.90;;;;;;4978885;28;20035;-76
2023/10/31 04:26:26;;;;;;;7.82;4.75;;;12.50;99.90;;;;;;4977245;28;20047;-77
2023/10/31 04:29:12;;;;;;;6.07;4.53;;;12.50;99.90;;;;;;4952452;29;20047;-76
2023/10/31 04:31:58;;;;;;;6.40;2.30;;;12.50;99.90;;;;;;4959329;28;20089;-76
2023/10/31 04:34:44;;;;;;;2.92;1.63;;;12.40;99.90;;;;;;4964930;28;20085;-76
2023/10/31 04:37:30;;;;;;;2.60;1.58;;;12.20;99.90;;;;;;4978207;28;20113;-76
2023/10/31 04:40:16;;;;;;;2.75;1.30;;;12.10;99.90;;;;;;4944752;29;20748;-76
2023/10/31 04:43:02;;;;;;;2.50;1.42;;;12.00;99.90;;;;;;4959110;28;20074;-76
2023/10/31 04:45:48;;;;;;;2.38;1.50;;;12.00;99.90;;;;;;4945755;28;20039;-77
2023/10/31 04:48:34;;;;;;;2.92;1.30;;;11.90;99.90;;;;;;4938537;28;20110;-76
2023/10/31 04:51:20;;;;;;;2.20;1.50;;;11.90;99.90;;;;;;4944684;28;20035;-76
2023/10/31 04:54:06;;;;;;;2.55;1.50;;;11.90;99.90;;;;;;4941652;28;20124;-76
2023/10/31 04:56:52;;;;;;;2.78;1.50;;;11.90;99.90;;;;;;4952537;28;20129;-76
2023/10/31 04:59:39;;;;;;;2.17;1.63;;;11.80;99.90;;;;;;4944836;28;20085;-76
2023/10/31 05:02:26;;;;;;;4.85;1.90;;;11.80;99.90;;;;;;4962656;28;20042;-76
2023/10/31 05:05:13;;;;;;;2.90;1.35;;;11.80;99.90;;;;;;4970501;28;20047;-76
2023/10/31 05:08:00;;;;;;;1.70;1.30;;;11.70;99.90;;;;;;4966078;28;20057;-76
2023/10/31 05:10:47;;;;;;;1.85;1.33;;;11.70;99.90;;;;;;4965026;28;20495;-76
2023/10/31 05:13:34;;;;;;;2.27;1.30;;;11.70;99.90;;;;;;4962989;28;20070;-76
2023/10/31 05:16:20;;;;;;;3.00;1.10;;;11.60;99.90;;;;;;4933789;28;20043;-76
2023/10/31 05:19:06;;;;;;;1.55;1.30;;;11.70;99.90;;;;;;4967316;28;20305;-77
2023/10/31 05:21:55;;;;;;;2.03;1.20;;;11.60;99.90;;;;;;4966494;28;20039;-76
2023/10/31 05:24:41;;;;;;;1.30;1.10;;;11.50;99.90;;;;;;4976562;28;20034;-76
2023/10/31 05:27:28;;;;;;;2.13;1.10;;;11.50;99.90;;;;;;4955823;28;20050;-76
2023/10/31 05:30:14;;;;;;;4.55;1.55;;;11.50;99.90;;;;;;4950440;29;20050;-75
2023/10/31 05:33:00;;;;;;;1.45;0.80;;;11.50;99.90;;;;;;4957652;28;20118;-76
2023/10/31 05:35:46;;;;;;;2.40;0.90;;;11.50;99.90;;;;;;4956176;28;20133;-76
2023/10/31 05:38:32;;;;;;;2.13;0.80;;;11.50;99.90;;;;;;4962150;28;20520;-76
2023/10/31 05:41:18;;;;;;;2.72;0.77;;;11.50;99.90;;;;;;4952685;29;20042;-76
2023/10/31 05:44:04;;;;;;;1.05;0.80;;;11.50;99.90;;;;;;4956527;28;20043;-76
2023/10/31 05:46:50;;;;;;;0.60;0.60;;;11.40;99.90;;;;;;4972407;28;20655;-76
2023/10/31 05:49:36;;;;;;;1.20;0.60;;;11.40;99.90;;;;;;4953098;29;20047;-76
2023/10/31 05:52:22;;;;;;;1.67;0.55;;;11.40;99.90;;;;;;4948330;28;20380;-76
2023/10/31 05:55:08;;;;;;;1.73;0.70;;;11.40;99.90;;;;;;4976070;28;20122;-77
2023/10/31 05:57:54;;;;;;;2.10;0.68;;;11.40;99.90;;;;;;4970924;28;20487;-76
2023/10/31 06:00:40;;;;;;;1.90;0.77;;;11.40;99.90;;;;;;4976458;28;20108;-76
2023/10/31 06:03:26;;;;;;;2.10;0.68;;;11.30;99.90;;;;;;4947275;28;20058;-76
2023/10/31 06:06:12;;;;;;;1.15;0.80;;;11.30;99.90;;;;;;4955973;29;20491;-76
2023/10/31 06:08:58;;;;;;;2.05;0.50;;;11.30;99.90;;;;;;4950406;28;20047;-77
2023/10/31 06:11:44;;;;;;;2.63;0.50;;;11.30;99.90;;;;;;4944925;29;20472;-77
2023/10/31 06:14:30;;;;;;;0.95;0.60;;;11.30;99.90;;;;;;4969356;28;20431;-76
2023/10/31 06:17:17;;;;;;;0.70;0.60;;;11.30;99.90;;;;;;4942176;28;20138;-77
2023/10/31 06:20:03;;;;;;;1.88;0.80;;;11.30;99.90;;;;;;4962275;28;20043;-76
2023/10/31 06:22:49;;;;;;;1.92;0.68;;;11.30;99.90;;;;;;4970215;28;20034;-76
2023/10/31 06:25:36;;;;;;;0.93;0.55;;;11.30;99.90;;;;;;4948043;28;20047;-76
2023/10/31 06:28:23;;;;;;;1.93;0.53;;;11.30;99.90;;;;;;4960675;28;20489;-76
2023/10/31 06:31:09;;;;;;;2.13;0.82;;;11.20;99.90;;;;;;4948538;28;20046;-76
2023/10/31 06:33:55;;;;;;;2.30;1.05;;;11.10;99.90;;;;;;4974097;28;20105;-76
2023/10/31 06:36:43;;;;;;;1.38;0.60;;;11.20;99.90;;;;;;4952694;29;20042;-75
2023/10/31 06:39:29;;;;;;;1.03;0.50;;;11.10;99.90;;;;;;4943403;29;20121;-76
2023/10/31 06:42:15;;;;;;;1.90;0.75;;;11.10;99.90;;;;;;4962686;28;20274;-76
2023/10/31 06:45:01;;;;;;;1.58;0.60;;;11.00;99.90;;;;;;4955660;28;20038;-76
2023/10/31 06:47:47;;;;;;;1.80;0.80;;;11.00;99.90;;;;;;4974286;28;20701;-76
2023/10/31 06:50:33;;;;;;;3.33;0.70;;;10.90;99.90;;;;;;4955824;29;20074;-76
2023/10/31 06:53:19;;;;;;;1.75;0.70;;;10.90;99.90;;;;;;4956801;28;20043;-77
2023/10/31 06:56:05;;;;;;;3.47;1.00;;;10.90;99.90;;;;;;4953767;29;20035;-76
2023/10/31 06:58:51;;;;;;;0.90;0.73;;;10.90;99.90;;;;;;4943211;29;20036;-77
2023/10/31 07:01:37;;;;;;;1.08;0.75;;;10.90;99.90;;;;;;4970366;28;20038;-76
2023/10/31 07:04:23;;;;;;;5.60;0.70;;;10.90;99.90;;;;;;4960545;28;20057;-76
2023/10/31 07:07:09;;;;;;;3.00;0.60;;;10.90;99.90;;;;;;4975847;28;20034;-77
2023/10/31 07:09:55;;;;;;;3.10;0.80;;;10.90;99.90;;;;;;4970506;28;20097;-76
2023/10/31 07:12:41;;;;;;;2.15;0.80;;;10.90;99.90;;;;;;4956576;29;20080;-76
2023/10/31 07:15:27;;;;;;;2.88;0.90;;;10.90;99.90;;;;;;4940376;28;20047;-76
2023/10/31 07:18:13;;;;;;;2.78;0.70;;;10.90;99.90;;;;;;4975194;28;20093;-76
2023/10/31 07:20:59;;;;;;;2.72;0.70;;;10.90;99.90;;;;;;4962099;28;20391;-76
2023/10/31 07:23:45;;;;;;;1.83;0.80;;;10.90;99.90;;;;;;4974316;28;20038;-76
2023/10/31 07:26:31;;;;;;;3.47;1.10;;;10.90;99.90;;;;;;4964011;28;20043;-76
2023/10/31 07:29:17;;;;;;;3.05;1.00;;;10.90;99.90;;;;;;4972066;28;20049;-77
2023/10/31 07:32:03;;;;;;;1.85;0.77;;;10.90;99.90;;;;;;4959427;28;20053;-76
2023/10/31 07:34:49;;;;;;;1.13;0.70;;;10.90;99.90;;;;;;4958350;28;20121;-76
2023/10/31 07:37:35;;;;;;;2.67;1.00;;;10.90;99.90;;;;;;4960989;28;20039;-76
2023/10/31 07:40:21;;;;;;;1.20;0.80;;;11.00;99.90;;;;;;4960840;28;20460;-76
2023/10/31 07:43:07;;;;;;;1.65;1.00;;;10.90;99.90;;;;;;4974308;28;20483;-76
2023/10/31 07:45:53;;;;;;;4.47;1.30;;;10.90;99.90;;;;;;4974154;28;20061;-76
2023/10/31 07:48:38;;;;;;;1.48;1.10;;;11.00;99.90;;;;;;4974235;28;20054;-76
2023/10/31 07:51:24;;;;;;;1.85;1.23;;;11.00;99.90;;;;;;4952381;28;20471;-77
2023/10/31 07:54:10;;;;;;;2.33;1.33;;;11.00;99.90;;;;;;4974396;28;20043;-77
2023/10/31 07:56:56;;;;;;;2.35;1.33;;;11.10;99.90;;;;;;4977121;28;20034;-77
2023/10/31 07:59:42;;;;;;;3.33;1.90;;;11.10;99.90;;;;;;4968522;28;20034;-76
2023/10/31 08:02:28;;;;;;;4.45;2.05;;;11.10;99.90;;;;;;4958842;28;20333;-76
2023/10/31 08:05:14;;;;;;;3.15;1.65;;;11.10;99.90;;;;;;4969348;28;20046;-76
2023/10/31 08:08:00;;;;;;;5.13;2.13;;;11.20;99.90;;;;;;4967096;28;20480;-77
2023/10/31 08:10:46;;;;;;;5.45;2.65;;;11.20;99.90;;;;;;4945588;29;20047;-76
2023/10/31 08:13:32;;;;;;;4.13;2.50;;;11.20;99.90;;;;;;4958867;28;20130;-76
2023/10/31 08:16:22;;;;;;;4.28;2.50;;;11.20;99.90;;;;;;4964240;28;20117;-76
2023/10/31 08:19:08;;;;;;;3.65;2.85;;;11.20;99.90;;;;;;4935374;28;20460;-76
2023/10/31 08:21:54;;;;;;;4.90;2.75;;;11.20;99.90;;;;;;4948904;28;20043;-76
2023/10/31 08:24:40;;;;;;;4.93;2.70;;;11.20;99.90;;;;;;4977380;28;20043;-76
2023/10/31 08:27:26;;;;;;;5.47;2.40;;;11.20;99.90;;;;;;4964741;28;20623;-77
2023/10/31 08:30:12;;;;;;;5.10;3.00;;;11.20;99.90;;;;;;4950772;28;20053;-76
2023/10/31 08:32:58;;;;;;;6.03;3.65;;;11.20;99.90;;;;;;4959258;28;20657;-76
2023/10/31 08:35:44;;;;;;;4.32;2.90;;;11.30;99.90;;;;;;4972594;28;20046;-76
2023/10/31 08:38:30;;;;;;;5.72;2.90;;;11.30;99.90;;;;;;4977343;28;20038;-76
2023/10/31 08:41:19;;;;;;;5.78;3.15;;;11.30;99.90;;;;;;4975227;28;20374;-76
2023/10/31 08:44:05;;;;;;;5.20;3.08;;;11.30;99.90;;;;;;4978196;28;20038;-77
2023/10/31 08:46:51;;;;;;;5.45;3.60;;;11.30;99.90;;;;;;4958911;28;20043;-77
2023/10/31 08:49:37;;;;;;;5.95;3.78;;;11.30;99.90;;;;;;4974657;28;20341;-77
2023/10/31 08:52:23;;;;;;;8.25;4.05;;;11.30;99.90;;;;;;4964621;28;20038;-76
2023/10/31 08:55:09;;;;;;;4.93;3.70;;;11.30;99.90;;;;;;4968554;28;20046;-76
2023/10/31 08:57:55;;;;;;;5.65;3.40;;;11.30;99.90;;;;;;4944742;29;20050;-77
2023/10/31 09:00:41;;;;;;;5.53;3.25;;;11.20;99.90;;;;;;4959424;28;20039;-77
2023/10/31 09:03:27;;;;;;;3.88;2.20;;;11.00;99.90;;;;;;4955888;28;20074;-77
2023/10/31 09:06:14;;;;;;;2.90;1.42;;;10.80;99.90;;;;;;4973553;28;20062;-77
2023/10/31 09:09:00;;;;;;;3.65;1.25;;;10.60;99.90;;;;;;4945283;28;20046;-77
2023/10/31 09:11:47;;;;;;;3.50;1.13;;;10.60;99.90;;;;;;4956849;28;20057;-77
2023/10/31 09:14:35;;;;;;;1.35;1.20;;;10.60;99.90;;;;;;4943774;29;20097;-77
2023/10/31 09:17:21;;;;;;;2.20;0.80;;;10.60;99.90;;;;;;4949432;28;20055;-76
2023/10/31 09:20:08;;;;;;;2.75;1.05;;;10.60;99.90;;;;;;4969869;28;20097;-76
2023/10/31 09:22:54;;;;;;;1.48;0.85;;;10.70;99.90;;;;;;4976455;28;20452;-76
2023/10/31 09:25:40;;;;;;;2.25;1.10;;;10.80;99.90;;;;;;4976944;28;20038;-76
2023/10/31 09:28:27;;;;;;;3.78;1.10;;;10.80;99.90;;;;;;4968445;28;20051;-76
2023/10/31 09:31:13;;;;;;;1.73;0.85;;;10.90;99.90;;;;;;4956344;29;20059;-76
2023/10/31 09:33:59;;;;;;;1.83;1.00;;;10.90;99.90;;;;;;4953022;28;20043;-77
2023/10/31 09:36:45;;;;;;;1.40;0.90;;;11.00;99.90;;;;;;4958809;28;20077;-76
2023/10/31 09:39:31;;;;;;;3.45;1.00;;;11.00;99.90;;;;;;4943564;29;20043;-77
2023/10/31 09:42:18;;;;;;;0.82;0.70;;;11.00;99.90;;;;;;4959330;28;20042;-77
2023/10/31 09:45:06;;;;;;;1.90;0.73;;;11.10;99.90;;;;;;4943394;28;20050;-76
2023/10/31 09:47:52;;;;;;;1.15;0.60;;;11.40;99.90;;;;;;4964569;28;20043;-76
2023/10/31 09:50:38;;;;;;;0.82;0.50;;;11.50;99.90;;;;;;4959943;28;20047;-76
2023/10/31 09:53:25;;;;;;;1.20;0.50;;;11.50;99.90;;;;;;4976633;28;20042;-77
2023/10/31 09:56:11;;;;;;;1.67;0.60;;;11.50;99.90;;;;;;4950899;28;20688;-76
2023/10/31 09:58:58;;;;;;;1.17;0.70;;;11.60;99.90;;;;;;4965504;28;20043;-76
2023/10/31 10:01:44;;;;;;;1.25;0.85;;;11.50;99.90;;;;;;4972765;28;20197;-77
2023/10/31 10:04:30;;;;;;;0.70;0.60;;;11.50;99.90;;;;;;4970709;28;20134;-76
2023/10/31 10:07:17;;;;;;;0.50;0.40;;;11.60;99.90;;;;;;4968620;28;20121;-77
2023/10/31 10:10:04;;;;;;;1.10;0.40;;;11.50;99.90;;;;;;4975880;28;20042;-76
2023/10/31 10:12:52;;;;;;;1.55;0.75;;;11.60;99.90;;;;;;4963865;28;20042;-77
2023/10/31 10:15:45;;;;;;;1.75;0.57;;;11.80;99.90;;;;;;4971171;28;20057;-77
2023/10/31 10:18:32;;;;;;;2.33;0.60;;;11.70;99.90;;;;;;4975346;28;20512;-76
2023/10/31 10:21:18;;;;;;;1.00;0.50;;;11.70;99.90;;;;;;4948938;29;20448;-77
2023/10/31 10:24:04;;;;;;;1.35;0.55;;;11.60;99.90;;;;;;4973745;28;20101;-76
2023/10/31 10:26:51;;;;;;;1.52;0.52;;;11.50;99.90;;;;;;4975818;28;20066;-76
2023/10/31 10:29:37;;;;;;;0.63;0.40;;;11.40;99.90;;;;;;4955338;29;20054;-76
2023/10/31 10:32:25;;;;;;;0.32;0.25;;;11.30;99.90;;;;;;4947557;28;20464;-75
2023/10/31 10:35:11;;;;;;;2.87;0.53;;;11.20;99.90;;;;;;4974675;28;20043;-76
2023/10/31 10:37:58;;;;;;;1.83;0.30;;;11.30;99.90;;;;;;4957715;28;20522;-76
2023/10/31 10:40:48;;;;;;;0.52;0.30;;;11.30;99.90;;;;;;4971582;28;20440;-76
2023/10/31 10:43:37;;;;;;;1.52;0.52;;;11.30;99.90;;;;;;4961611;28;20039;-76
2023/10/31 10:46:25;;;;;;;0.40;0.32;;;11.40;99.90;;;;;;4958257;28;20054;-76
2023/10/31 10:49:11;;;;;;;0.30;0.30;;;11.40;99.90;;;;;;4953227;28;20042;-75
2023/10/31 10:52:01;;;;;;;0.60;0.32;;;11.40;99.90;;;;;;4948974;28;20645;-77
2023/10/31 10:54:56;;;;;;;1.88;0.63;;;11.40;99.90;;;;;;4973059;28;20054;-76
2023/10/31 10:57:55;;;;;;;2.03;0.50;;;11.60;99.90;;;;;;4983098;28;20074;-78
2023/10/31 11:00:41;;;;;;;1.05;0.40;;;11.70;99.90;;;;;;4959265;28;20050;-77
2023/10/31 11:03:27;;;;;;;1.63;0.52;;;11.90;99.90;;;;;;4945185;28;20047;-77
2023/10/31 11:06:13;;;;;;;3.08;0.50;;;11.90;99.90;;;;;;4950839;28;20074;-78
2023/10/31 11:09:00;;;;;;;0.47;0.35;;;11.90;99.90;;;;;;4963115;28;20043;-78
2023/10/31 11:11:48;;;;;;;0.40;0.40;;;11.90;99.90;;;;;;4954894;28;20038;-77
2023/10/31 11:14:35;;;;;;;;;;;11.90;99.90;;;;;;4959194;28;20056;-75
2023/10/31 11:17:26;;;;;;;0.55;0.40;;;11.80;99.90;;;;;;4965885;28;19926;-76
2023/10/31 11:20:15;;;;;;;1.45;0.57;;;11.90;99.90;;;;;;4942774;29;20043;-77
2023/10/31 11:23:06;;;;;;;0.98;0.50;;;11.90;99.90;;;;;;4946304;28;20460;-77
2023/10/31 11:25:53;;;;;;;0.80;0.52;;;11.90;99.90;;;;;;4965432;28;20039;-76
2023/10/31 11:28:39;;;;;;;0.70;0.40;;;12.00;99.90;;;;;;4959591;28;20042;-77
2023/10/31 11:31:26;;;;;;;1.42;0.60;;;12.50;99.90;;;;;;4941256;28;20051;-77
2023/10/31 11:34:12;;;;;;;2.42;0.50;;;12.50;99.90;;;;;;4953663;28;20046;-76
2023/10/31 11:37:27;;;;;;;3.00;0.65;;;12.40;99.90;;;;;;4988119;28;20039;-80
2023/10/31 11:40:14;;;;;;;1.20;0.90;;;12.30;99.90;;;;;;4964821;28;20127;-78
2023/10/31 11:43:17;;;;;;;2.83;1.10;;;12.30;99.90;;;;;;4965016;28;20035;-80
2023/10/31 11:46:07;;;;;;;2.75;0.55;;;12.20;99.90;;;;;;4978208;28;20050;-79
2023/10/31 11:49:02;;;;;;;2.65;0.68;;;12.10;99.90;;;;;;4971197;28;20019;-79
2023/10/31 11:51:48;;;;;;;0.70;0.60;;;12.10;99.90;;;;;;4974678;28;20038;-76
2023/10/31 11:54:34;;;;;;;2.10;0.70;;;12.10;99.90;;;;;;4955942;29;20384;-78
2023/10/31 11:57:27;;;;;;;1.80;0.63;;;12.10;99.90;;;;;;4944426;28;20038;-79
2023/10/31 12:00:21;;;;;;;4.57;1.13;;;12.10;99.90;;;;;;4955201;29;20043;-79
2023/10/31 12:03:08;;;;;;;2.33;0.55;;;12.00;99.90;;;;;;4944900;28;20472;-77
2023/10/31 12:05:59;;;;;;;2.45;0.73;;;12.00;99.90;;;;;;4962095;28;20426;-78
2023/10/31 12:08:49;;;;;;;2.17;0.80;;;12.00;99.90;;;;;;4950187;28;20090;-79
2023/10/31 12:11:37;;;;;;;1.63;0.90;;;12.00;99.90;;;;;;4943802;28;21080;-79
2023/10/31 12:14:23;;;;;;;1.77;0.80;;;12.00;99.90;;;;;;4944042;28;20039;-79
2023/10/31 12:17:11;;;;;;;2.33;1.27;;;12.00;99.90;;;;;;4963503;28;20067;-79
2023/10/31 12:19:58;;;;;;;1.80;1.20;;;12.00;99.90;;;;;;4972524;28;20130;-76
2023/10/31 12:22:44;;;;;;;2.97;1.27;;;11.90;99.90;;;;;;4964456;28;20721;-74
2023/10/31 12:25:32;;;;;;;5.50;1.20;;;12.00;99.90;;;;;;4954736;28;20122;-74
2023/10/31 12:28:19;;;;;;;7.78;2.28;;;12.00;99.90;;;;;;4966990;28;20043;-75
2023/10/31 12:31:05;;;;;;;3.42;1.33;;;12.00;99.90;;;;;;4985013;28;20062;-74
2023/10/31 12:33:51;;;;;;;2.55;1.08;;;12.00;99.90;;;;;;4973194;28;20173;-74
2023/10/31 12:36:37;;;;;;;3.63;1.38;;;12.00;99.90;;;;;;4947037;28;20053;-75
2023/10/31 12:39:25;;;;;;;2.92;1.52;;;12.00;99.90;;;;;;4958636;28;20047;-73
2023/10/31 12:42:11;;;;;;;2.80;1.60;;;12.00;99.90;;;;;;4958936;28;20399;-75
2023/10/31 12:44:59;;;;;;;2.13;1.25;;;12.00;99.90;;;;;;4965620;28;20106;-76
2023/10/31 12:48:00;;;;;;;2.67;1.38;;;12.10;99.90;;;;;;4967446;28;20049;-76
2023/10/31 12:50:46;;;;;;;3.33;1.40;;;12.10;99.90;;;;;;4971616;28;20042;-76
2023/10/31 12:53:34;;;;;;;3.80;1.88;;;12.10;99.90;;;;;;4947031;29;20429;-76
2023/10/31 12:56:41;;;;;;;3.97;1.70;;;12.00;99.90;;;;;;4941644;28;20114;-76
2023/10/31 12:59:29;;;;;;;2.95;1.45;;;12.00;99.90;;;;;;4976070;28;20041;-77
2023/10/31 13:02:18;;;;;;;4.07;1.50;;;12.00;99.90;;;;;;4949975;28;20049;-77
2023/10/31 13:05:12;;;;;;;3.35;1.35;;;11.90;99.90;;;;;;4957688;28;20416;-76
2023/10/31 13:08:00;;;;;;;2.60;1.25;;;11.90;99.90;;;;;;4967612;28;20412;-76
2023/10/31 13:10:46;;;;;;;2.50;1.40;;;12.00;99.90;;;;;;4976149;28;20469;-76
2023/10/31 13:13:32;;;;;;;3.38;1.42;;;11.90;99.90;;;;;;4959701;28;20185;-76
2023/10/31 13:16:20;;;;;;;3.25;2.13;;;12.00;99.90;;;;;;4975752;28;20459;-75
2023/10/31 13:19:05;;;;;;;3.45;1.63;;;12.00;99.90;;;;;;4966120;28;20046;-76
2023/10/31 13:21:51;;;;;;;4.22;2.53;;;12.00;99.90;;;;;;4974801;28;20042;-76
2023/10/31 13:24:37;;;;;;;5.50;2.30;;;12.00;99.90;;;;;;4961438;28;20042;-76
2023/10/31 13:27:23;;;;;;;4.60;2.17;;;12.00;99.90;;;;;;4967433;28;20034;-77
2023/10/31 13:30:11;;;;;;;3.53;2.50;;;12.00;99.90;;;;;;4973787;28;20047;-76
2023/10/31 13:32:57;;;;;;;4.93;3.10;;;11.90;99.90;;;;;;4949211;28;20052;-75
2023/10/31 13:35:43;;;;;;;5.20;3.10;;;11.90;99.90;;;;;;4964166;28;20043;-76
2023/10/31 13:38:29;;;;;;;5.93;3.10;;;12.00;99.90;;;;;;4937419;28;20578;-76
2023/10/31 13:41:15;;;;;;;4.78;3.15;;;12.00;99.90;;;;;;4951239;29;20644;-76
2023/10/31 13:44:03;;;;;;;6.80;3.45;;;12.00;99.90;;;;;;4958657;28;20042;-76
2023/10/31 13:46:49;;;;;;;5.60;3.28;;;12.00;99.90;;;;;;4962623;28;20050;-75
2023/10/31 13:49:36;;;;;;;9.02;3.67;;;12.00;99.90;;;;;;4944109;28;20566;-76
2023/10/31 13:52:22;;;;;;;7.22;3.28;;;12.00;99.90;;;;;;4969158;28;20043;-76
2023/10/31 13:55:08;;;;;;;4.13;3.00;;;12.00;99.90;;;;;;4969825;28;20043;-75
2023/10/31 13:57:54;;;;;;;6.65;3.20;;;11.90;99.90;;;;;;4968611;28;20052;-76
2023/10/31 14:00:45;;;;;;;5.85;2.83;;;11.90;99.90;;;;;;4960738;28;20035;-76
2023/10/31 14:03:31;;;;;;;6.10;3.40;;;11.90;99.90;;;;;;4962513;28;20043;-76
2023/10/31 14:06:17;;;;;;;4.15;2.78;;;11.90;99.90;;;;;;4977987;28;20134;-76
2023/10/31 14:09:04;;;;;;;4.15;2.70;;;12.00;99.90;;;;;;4949440;28;20034;-76
2023/10/31 14:11:51;;;;;;;4.22;2.42;;;11.90;99.90;;;;;;4973192;28;20047;-75
2023/10/31 14:14:37;;;;;;;6.65;2.13;;;12.00;99.90;;;;;;4956815;28;20409;-76
2023/10/31 14:17:23;;;;;;;3.25;2.45;;;12.00;99.90;;;;;;4954977;29;20059;-76
2023/10/31 14:20:09;;;;;;;5.90;2.90;;;12.00;99.90;;;;;;4975470;28;20045;-76
2023/10/31 14:22:55;;;;;;;6.75;3.50;;;12.00;99.90;;;;;;4961576;28;20134;-75
2023/10/31 14:25:41;;;;;;;3.63;2.30;;;12.00;99.90;;;;;;4960852;28;20074;-75